Flight Track Log - Related Links

Times and Time Zones

All times are in EDT time to prevent confusion due to time zone crossing. See the N21459 flight status page for this flight to view local times or setup timezone preferences in your user account.

Time Position Orientation Groundspeed Altitude Reporting Facility
EDT Latitude Longitude Course Direction KTS MPH feet Rate Location/Type
Thu 01:27:06 PM 42.2572 -85.5469 70° East 102 117 1,400  Level Chicago Center
Thu 01:29:00 PM 42.2628 -85.4415 86° East  Level FlightAware Approximate
Thu 01:30:00 PM 42.2921 -85.2842 70° East  Level FlightAware Approximate
Thu 01:31:00 PM 42.3061 -85.2319 70° East  Level FlightAware Approximate
Thu 01:32:00 PM 42.3202 -85.1796 70° East  Level FlightAware Approximate
Thu 01:35:10 PM 42.1994 -85.4889 93° East 134 154 2,000  Level Chicago Center
Thu 01:36:00 PM 42.3468 -85.0801 70° East  Level FlightAware Approximate
Thu 01:36:13 PM 42.2144 -85.4458 65° Northeast 129 148 2,800  Level Chicago Center
Thu 01:37:00 PM 42.3607 -85.0277 70° East  Level FlightAware Approximate
Thu 01:38:00 PM 42.3747 -84.9752 70° East  Level FlightAware Approximate
Thu 01:38:17 PM 42.2444 -85.3442 68° East 131 151 3,600  Level Chicago Center
Thu 01:39:00 PM 42.3886 -84.9228 70° East  Level FlightAware Approximate
Thu 01:39:19 PM 42.2586 -85.2978 68° East 133 153 4,100  Level Chicago Center
Thu 01:40:21 PM 42.2733 -85.2500 67° East 130 150 4,800 435 Climbing Chicago Center
Thu 01:41:23 PM 42.2867 -85.2039 69° East 130 150 5,000 97 Climbing Chicago Center
Thu 01:42:25 PM 42.3042 -85.1511 66° East 145 167 5,000  Level Chicago Center
Thu 01:43:27 PM 42.3200 -85.0958 69° East 155 178 5,000  Level Chicago Center
Thu 01:44:29 PM 42.3364 -85.0428 67° East 154 177 5,000  Level Chicago Center
Thu 01:45:31 PM 42.3553 -84.9803 68° East 151 174 5,000  Level Chicago Center
Thu 01:46:33 PM 42.3722 -84.9253 67° East 155 178 5,000  Level Chicago Center
Thu 01:47:36 PM 42.3864 -84.8678 72° East 161 185 5,000 -48 Level Chicago Center
Thu 01:48:38 PM 42.3961 -84.8125 77° East 154 177 4,900  Descending Chicago Center
Thu 01:49:40 PM 42.4081 -84.7572 74° East 154 177 5,000 48 Climbing Chicago Center
Thu 01:50:42 PM 42.4214 -84.6903 75° East 154 177 5,000  Level Chicago Center
Thu 01:51:44 PM 42.4325 -84.6333 75° East 156 180 5,000  Level Chicago Center
Thu 01:52:46 PM 42.4433 -84.5767 75° East 156 180 5,000 -48 Level Chicago Center
Thu 01:53:48 PM 42.4544 -84.5225 74° East 152 175 4,900 -48 Descending Chicago Center
Thu 01:54:50 PM 42.4658 -84.4658 75° East 155 178 4,900 48 Level Chicago Center
Thu 01:55:52 PM 42.4767 -84.4108 75° East 153 176 5,000 48 Climbing Chicago Center
Thu 01:56:54 PM 42.4892 -84.3431 76° East 154 177 5,000 -52 Level Chicago Center
Thu 01:57:47 PM 42.4983 -84.2950 75° East 162 186 4,900  Descending Cleveland Center
Thu 01:58:42 PM 42.5103 -84.2422 73° East 160 184 5,000 109 Climbing Cleveland Center

Login

Don't have an account? Register now (free) for customized features, flight alerts, and more!